Pacific Palisades, California
Current Conditions -  °F | °C
As of 2:51 AM on Monday 20 Oct 2014 (Local Time) from KSMO Reporting Station
Scattered Clouds Scattered Clouds  
Wind Chill: 67°   Ceiling: Unl
Heat Index: 67°   Visibility: 10mi
Dew Point: 60°   Wind: 0mph
Humidity: 79%   Direction: NA
Pressure: 29.89"   Gusts: NA
Location:  34.05°N, 118.53°W
Report Text: KSMO 200951Z AUTO 00000KT 10SM SCT012 19/16 A2989 RMK AO2 SLP119 T01940156
Loading
Personal Weather Stations






























Interactive Weather Map New forecast layout! Learn more

10-Day Weather Forecast

Advertisements
Track Severe Weather on mobile